Time;durP1;ratioP1;P1;durP2;ratioP2;P2;SDS_P1;SDS_P2;PMS_P1;PMS_P2;Temp;Humidity;BMP_temperature;BMP_pressure;BME280_temperature;BME280_humidity;BME280_pressure;Samples;Min_cycle;Max_cycle;Signal;HPM_P1;HPM_P2
2021/06/13 00:00:52;;;;;;;7.03;4.35;;;;;;;14.29;73.54;93935.47;5112363;28;20110;-74
2021/06/13 00:03:17;;;;;;;6.60;4.65;;;;;;;14.24;74.03;93949.09;5112555;28;20027;-74
2021/06/13 00:05:43;;;;;;;7.53;4.45;;;;;;;14.26;73.94;93941.50;5112429;28;20371;-74
2021/06/13 00:08:08;;;;;;;10.48;4.85;;;;;;;14.27;73.71;93937.72;5098683;28;20093;-74
2021/06/13 00:10:34;;;;;;;7.32;5.22;;;;;;;14.27;73.63;93947.63;5091122;28;20499;-74
2021/06/13 00:12:59;;;;;;;11.13;6.03;;;;;;;14.24;73.85;93949.84;5090601;28;20118;-74
2021/06/13 00:15:25;;;;;;;8.93;5.68;;;;;;;14.22;73.92;93940.59;5091701;28;20443;-74
2021/06/13 00:17:53;;;;;;;10.68;5.82;;;;;;;14.19;74.18;93943.97;5099348;28;20376;-75
2021/06/13 00:20:22;;;;;;;8.85;6.40;;;;;;;14.17;74.26;93949.63;5111060;28;20028;-74
2021/06/13 00:22:49;;;;;;;9.13;6.22;;;;;;;14.16;74.52;93948.06;5112278;28;20043;-74
2021/06/13 00:25:15;;;;;;;12.30;6.55;;;;;;;14.15;74.51;93941.16;5112002;28;20024;-74
2021/06/13 00:27:41;;;;;;;11.57;6.78;;;;;;;14.14;74.54;93941.47;5111747;28;20130;-74
2021/06/13 00:30:10;;;;;;;11.82;6.55;;;;;;;14.13;74.52;93938.03;5110386;28;20607;-74
2021/06/13 00:32:36;;;;;;;13.98;6.35;;;;;;;14.10;74.72;93938.66;5110353;28;20019;-74
2021/06/13 00:35:02;;;;;;;13.63;6.65;;;;;;;14.11;74.68;93934.13;5111806;28;20034;-74
2021/06/13 00:37:28;;;;;;;10.25;6.93;;;;;;;14.09;74.60;93934.44;5102922;28;20457;-74
2021/06/13 00:39:53;;;;;;;17.20;7.60;;;;;;;14.06;74.82;93927.06;5091428;28;20078;-74
2021/06/13 00:42:19;;;;;;;14.27;7.32;;;;;;;14.05;74.79;93928.19;5094046;28;20524;-73
2021/06/13 00:44:45;;;;;;;10.40;6.97;;;;;;;14.06;75.06;93924.38;5089953;28;20062;-74
2021/06/13 00:47:10;;;;;;;12.38;7.25;;;;;;;14.05;74.91;93915.56;5093092;28;20483;-74
2021/06/13 00:49:36;;;;;;;11.93;7.20;;;;;;;14.01;74.67;93911.97;5107712;28;20076;-74
2021/06/13 00:52:02;;;;;;;19.52;7.80;;;;;;;14.00;74.87;93913.09;5111247;28;20055;-74
2021/06/13 00:54:28;;;;;;;13.05;7.95;;;;;;;13.98;75.01;93922.56;5110468;28;20449;-74
2021/06/13 00:56:54;;;;;;;14.40;8.18;;;;;;;13.92;75.07;93914.00;5104114;28;20031;-74
2021/06/13 00:59:20;;;;;;;16.33;8.57;;;;;;;13.91;75.06;93911.63;5107498;28;20398;-74
2021/06/13 01:01:45;;;;;;;13.75;8.02;;;;;;;13.93;75.25;93914.78;5098017;28;20043;-74
2021/06/13 01:04:11;;;;;;;11.45;7.20;;;;;;;13.90;75.17;93910.84;5099327;28;20033;-74
2021/06/13 01:06:54;;;;;;;14.52;8.30;;;;;;;13.89;75.37;93909.28;5107745;28;20375;-74
2021/06/13 01:09:24;;;;;;;10.32;7.85;;;;;;;13.89;75.28;93913.88;5098958;28;20031;-74
2021/06/13 01:11:55;;;;;;;10.10;6.78;;;;;;;13.90;75.27;93920.78;5096328;28;20055;-74
2021/06/13 01:14:45;;;;;;;10.20;7.15;;;;;;;13.90;75.32;93912.72;5098751;28;20070;-74
2021/06/13 01:17:30;;;;;;;18.67;9.40;;;;;;;13.91;75.66;93909.72;5111035;28;20379;-74
2021/06/13 01:20:19;;;;;;;12.60;8.13;;;;;;;13.89;75.58;93898.56;5109201;28;20032;-74
2021/06/13 01:22:47;;;;;;;15.13;7.90;;;;;;;13.91;75.69;93908.97;5109431;28;20111;-74
2021/06/13 01:25:28;;;;;;;15.20;8.20;;;;;;;13.90;75.80;93889.44;5110822;27;20028;-74
2021/06/13 01:28:02;;;;;;;13.52;8.52;;;;;;;13.92;75.68;93891.75;5109520;28;20038;-74
2021/06/13 01:30:30;;;;;;;15.38;9.13;;;;;;;13.90;75.73;93907.38;5108453;28;20033;-74
2021/06/13 01:32:57;;;;;;;13.57;9.38;;;;;;;13.90;75.44;93896.66;5096579;28;20020;-74
2021/06/13 01:35:26;;;;;;;18.30;10.95;;;;;;;13.86;76.07;93909.97;5106448;27;20023;-74
2021/06/13 01:37:54;;;;;;;14.05;8.85;;;;;;;13.83;75.73;93914.06;5099997;28;20019;-74
2021/06/13 01:40:29;;;;;;;20.70;9.57;;;;;;;13.77;75.74;93910.03;5097412;28;20059;-74
2021/06/13 01:42:57;;;;;;;17.15;10.60;;;;;;;13.74;76.00;93910.72;5098795;28;20027;-74
2021/06/13 01:45:29;;;;;;;17.15;11.23;;;;;;;13.70;76.63;93915.16;5102907;28;20034;-74
2021/06/13 01:47:55;;;;;;;20.45;11.80;;;;;;;13.70;76.86;93903.66;5088889;28;20115;-74
2021/06/13 01:50:24;;;;;;;20.23;11.82;;;;;;;13.69;77.13;93905.56;5089836;28;20113;-74
2021/06/13 01:52:51;;;;;;;17.88;12.27;;;;;;;13.67;77.58;93899.75;5088738;28;20031;-74
2021/06/13 01:55:19;;;;;;;17.63;12.25;;;;;;;13.65;77.70;93904.66;5090040;28;20451;-75
2021/06/13 01:57:45;;;;;;;16.45;11.60;;;;;;;13.66;77.75;93908.91;5092886;28;20111;-75
2021/06/13 02:00:13;;;;;;;19.02;11.25;;;;;;;13.67;77.56;93905.09;5099582;28;20024;-74
2021/06/13 02:02:41;;;;;;;19.55;12.07;;;;;;;13.68;77.28;93901.31;5103267;28;20038;-74
2021/06/13 02:05:07;;;;;;;18.73;12.10;;;;;;;13.64;77.53;93885.13;5108991;28;20066;-75
2021/06/13 02:07:36;;;;;;;16.48;11.88;;;;;;;13.62;77.51;93891.94;5110122;28;20034;-75
2021/06/13 02:10:05;;;;;;;18.48;11.63;;;;;;;13.64;77.48;93881.66;5108848;28;20132;-75
2021/06/13 02:12:36;;;;;;;19.63;12.65;;;;;;;13.64;77.48;93890.47;5108732;28;20031;-74
2021/06/13 02:15:01;;;;;;;23.02;12.35;;;;;;;13.68;77.33;93876.41;5095957;28;20024;-75
2021/06/13 02:17:27;;;;;;;18.02;12.05;;;;;;;13.69;77.36;93872.63;5094412;28;20395;-75
2021/06/13 02:19:54;;;;;;;18.90;12.35;;;;;;;13.72;77.41;93882.66;5089697;28;20012;-75
2021/06/13 02:22:20;;;;;;;18.98;12.75;;;;;;;13.73;77.43;93877.00;5089673;28;20517;-75
2021/06/13 02:24:47;;;;;;;18.65;12.02;;;;;;;13.72;77.27;93869.28;5105540;28;20027;-74
2021/06/13 02:27:15;;;;;;;22.52;11.93;;;;;;;13.73;76.94;93876.22;5109926;28;20020;-75
2021/06/13 02:29:42;;;;;;;19.55;12.23;;;;;;;13.74;76.69;93875.88;5096928;28;20410;-74
2021/06/13 02:32:12;;;;;;;16.58;11.68;;;;;;;13.77;76.57;93877.88;5090877;28;20054;-75
2021/06/13 02:34:38;;;;;;;17.23;10.60;;;;;;;13.76;76.46;93884.38;5093638;28;20036;-74
2021/06/13 02:37:06;;;;;;;22.27;11.00;;;;;;;13.73;76.50;93882.34;5092443;28;20097;-76
2021/06/13 02:39:32;;;;;;;20.83;12.18;;;;;;;13.70;76.73;93882.22;5093725;28;20450;-75
2021/06/13 02:41:58;;;;;;;17.65;11.02;;;;;;;13.71;76.63;93889.16;5093709;28;20039;-75
2021/06/13 02:44:24;;;;;;;15.70;11.35;;;;;;;13.71;76.42;93889.94;5092320;28;20487;-75
2021/06/13 02:46:50;;;;;;;16.15;11.60;;;;;;;13.73;76.23;93881.56;5093476;28;20028;-74
2021/06/13 02:49:15;;;;;;;17.88;11.15;;;;;;;13.68;76.20;93890.59;5110965;28;20053;-74
2021/06/13 02:52:07;;;;;;;18.30;10.60;;;;;;;13.70;76.17;93896.41;5113914;28;20463;-75
2021/06/13 02:54:36;;;;;;;18.95;10.65;;;;;;;13.70;76.14;93882.22;5104234;28;20084;-76
2021/06/13 02:57:06;;;;;;;20.13;11.20;;;;;;;13.66;76.37;93882.13;5113706;28;20030;-75
2021/06/13 02:59:51;;;;;;;17.95;11.60;;;;;;;13.68;75.99;93885.25;5113747;28;20027;-75
2021/06/13 03:02:23;;;;;;;16.67;10.35;;;;;;;13.65;76.12;93883.22;5105572;28;20491;-75
2021/06/13 03:04:49;;;;;;;;;;;;;;;13.63;76.36;93878.19;5104850;28;20114;-74
2021/06/13 03:07:19;;;;;;;19.25;11.55;;;;;;;13.60;76.75;93870.84;5093261;28;19962;-74
2021/06/13 03:09:47;;;;;;;20.42;12.60;;;;;;;13.60;77.14;93876.19;5100461;28;20069;-74
2021/06/13 03:12:14;;;;;;;20.38;12.93;;;;;;;13.65;76.81;93880.53;5091453;28;20108;-75
2021/06/13 03:14:41;;;;;;;19.45;12.75;;;;;;;13.71;76.65;93884.56;5092634;28;20081;-74
2021/06/13 03:17:09;;;;;;;24.50;13.05;;;;;;;13.72;76.63;93882.66;5113354;28;20027;-74
2021/06/13 03:19:39;;;;;;;23.10;12.80;;;;;;;13.71;76.68;93883.81;5101891;28;20410;-74
2021/06/13 03:22:05;;;;;;;22.35;12.20;;;;;;;13.70;76.65;93883.03;5091406;28;20114;-74
2021/06/13 03:24:33;;;;;;;21.25;11.88;;;;;;;13.72;76.52;93877.31;5098841;28;20024;-74
2021/06/13 03:26:59;;;;;;;20.35;11.68;;;;;;;13.72;76.56;93877.31;5092485;28;20028;-74
2021/06/13 03:29:26;;;;;;;22.35;12.57;;;;;;;13.73;76.61;93886.94;5092849;28;20038;-75
2021/06/13 03:31:54;;;;;;;19.58;12.35;;;;;;;13.74;76.38;93873.22;5100327;28;20145;-75
2021/06/13 03:34:19;;;;;;;22.27;11.40;;;;;;;13.80;76.74;93877.25;5096134;28;20028;-75
2021/06/13 03:36:45;;;;;;;19.30;11.82;;;;;;;13.83;76.95;93881.91;5098398;28;20020;-75
2021/06/13 03:39:12;;;;;;;19.52;11.65;;;;;;;13.88;76.74;93877.47;5091223;28;20085;-75
2021/06/13 03:41:38;;;;;;;18.13;12.18;;;;;;;13.85;76.53;93887.72;5091970;28;20020;-75
2021/06/13 03:44:04;;;;;;;18.58;11.45;;;;;;;13.85;76.75;93890.41;5108829;28;20015;-74
2021/06/13 03:46:30;;;;;;;22.48;11.38;;;;;;;13.87;76.64;93887.41;5099547;28;20131;-75
2021/06/13 03:48:58;;;;;;;23.05;11.88;;;;;;;13.89;76.46;93879.03;5106949;28;20114;-74
2021/06/13 03:51:25;;;;;;;25.60;12.90;;;;;;;13.80;76.10;93892.53;5108746;28;20122;-75
2021/06/13 03:53:54;;;;;;;28.00;11.13;;;;;;;13.78;76.37;93884.03;5092244;28;20024;-75
2021/06/13 03:56:43;;;;;;;21.20;12.55;;;;;;;13.77;76.57;93887.81;5111003;28;20088;-74
2021/06/13 03:59:10;;;;;;;22.02;13.05;;;;;;;13.79;76.84;93878.34;5112386;28;20165;-75
2021/06/13 04:01:37;;;;;;;16.08;11.35;;;;;;;13.77;77.33;93877.13;5094647;28;20101;-74
2021/06/13 04:04:04;;;;;;;17.13;11.77;;;;;;;13.84;77.24;93872.78;5105643;28;20103;-74
2021/06/13 04:06:30;;;;;;;20.85;12.30;;;;;;;13.91;77.29;93874.13;5110920;28;20477;-75
2021/06/13 04:08:56;;;;;;;20.58;12.20;;;;;;;13.99;77.06;93873.25;5104386;28;20107;-75
2021/06/13 04:11:23;;;;;;;19.58;11.93;;;;;;;14.06;77.03;93862.72;5091713;28;20048;-75
2021/06/13 04:13:49;;;;;;;22.92;12.80;;;;;;;14.10;76.94;93857.50;5090527;28;20035;-74
2021/06/13 04:16:18;;;;;;;21.75;12.30;;;;;;;14.18;76.79;93870.00;5090330;28;20020;-74
2021/06/13 04:18:44;;;;;;;24.42;13.25;;;;;;;14.25;76.92;93860.28;5094784;28;20024;-74
2021/06/13 04:21:11;;;;;;;22.67;14.93;;;;;;;14.35;76.42;93855.59;5094118;28;20522;-75
2021/06/13 04:23:40;;;;;;;19.35;11.65;;;;;;;14.45;76.29;93863.97;5100461;28;20028;-74
2021/06/13 04:26:06;;;;;;;14.52;9.30;;;;;;;14.50;76.02;93854.91;5090644;28;20470;-74
2021/06/13 04:28:31;;;;;;;13.13;8.90;;;;;;;14.58;75.49;93845.22;5091448;28;20112;-74
2021/06/13 04:31:02;;;;;;;13.70;8.70;;;;;;;14.68;75.39;93842.06;5091474;28;20036;-74
2021/06/13 04:33:32;;;;;;;15.40;9.07;;;;;;;14.73;74.91;93849.09;5091495;28;20024;-74
2021/06/13 04:35:58;;;;;;;11.77;8.65;;;;;;;14.84;74.69;93852.88;5091366;28;20107;-75
2021/06/13 04:38:24;;;;;;;13.48;8.85;;;;;;;14.89;74.59;93857.97;5091185;28;20051;-74
2021/06/13 04:40:49;;;;;;;12.50;8.10;;;;;;;14.96;74.32;93850.16;5091455;28;20404;-75
2021/06/13 04:43:15;;;;;;;17.60;9.35;;;;;;;15.07;73.92;93857.72;5094837;28;20447;-75
2021/06/13 04:45:40;;;;;;;11.68;9.05;;;;;;;15.12;73.78;93866.31;5111488;28;20403;-74
2021/06/13 04:48:07;;;;;;;9.45;7.20;;;;;;;15.19;73.63;93857.69;5102637;28;20480;-74
2021/06/13 04:50:34;;;;;;;14.60;9.65;;;;;;;15.29;73.34;93857.19;5102149;28;20031;-74
2021/06/13 04:53:02;;;;;;;10.48;7.65;;;;;;;15.36;72.01;93862.72;5111455;28;20406;-74
2021/06/13 04:55:41;;;;;;;14.57;7.20;;;;;;;15.45;71.63;93860.69;5093933;28;20035;-75
2021/06/13 04:58:25;;;;;;;15.18;8.15;;;;;;;15.39;71.56;93861.28;5074194;28;20094;-75
2021/06/13 05:00:51;;;;;;;13.43;7.40;;;;;;;15.50;71.85;93856.19;5079673;28;20118;-75
2021/06/13 05:03:17;;;;;;;11.38;7.63;;;;;;;15.53;71.51;93858.97;5111360;28;20066;-74
2021/06/13 05:05:43;;;;;;;12.88;7.32;;;;;;;15.60;71.18;93853.00;5108369;28;20474;-74
2021/06/13 05:08:08;;;;;;;12.68;7.85;;;;;;;15.62;71.08;93859.59;5109974;28;20034;-74
2021/06/13 05:10:34;;;;;;;12.27;8.40;;;;;;;15.49;71.98;93874.22;5099030;28;20139;-74
2021/06/13 05:13:00;;;;;;;17.33;7.95;;;;;;;15.43;71.58;93878.28;5090806;28;20036;-74
2021/06/13 05:15:25;;;;;;;10.70;8.15;;;;;;;15.48;72.21;93871.88;5089376;28;20470;-74
2021/06/13 05:17:51;;;;;;;10.90;6.63;;;;;;;15.47;71.83;93883.72;5105704;28;20092;-74
2021/06/13 05:20:18;;;;;;;8.75;6.30;;;;;;;15.47;71.26;93879.16;5103751;28;20030;-74
2021/06/13 05:22:59;;;;;;;9.27;6.50;;;;;;;15.50;71.29;93867.72;5098653;28;20021;-74
2021/06/13 05:25:29;;;;;;;19.30;6.45;;;;;;;15.51;70.02;93869.28;5095704;28;20020;-74
2021/06/13 05:27:56;;;;;;;11.00;6.00;;;;;;;15.59;70.70;93876.41;5105495;28;20092;-74
2021/06/13 05:30:23;;;;;;;12.45;6.85;;;;;;;15.74;70.97;93869.50;5096367;28;20020;-74
2021/06/13 05:32:49;;;;;;;10.52;7.25;;;;;;;15.92;70.56;93877.25;5105137;28;20197;-74
2021/06/13 05:35:15;;;;;;;8.98;5.72;;;;;;;16.10;70.44;93865.03;5110706;28;20036;-74
2021/06/13 05:37:40;;;;;;;9.38;6.70;;;;;;;16.32;71.04;93862.84;5109506;28;20466;-74
2021/06/13 05:40:08;;;;;;;14.65;6.45;;;;;;;16.47;70.27;93861.28;5109164;28;20118;-74
2021/06/13 05:42:33;;;;;;;11.32;5.85;;;;;;;16.61;69.44;93856.97;5109166;28;20050;-74
2021/06/13 05:44:59;;;;;;;11.20;6.18;;;;;;;16.77;68.63;93853.47;5099869;28;20024;-74
2021/06/13 05:47:24;;;;;;;10.35;5.93;;;;;;;16.90;68.75;93846.84;5088747;28;20088;-74
2021/06/13 05:49:50;;;;;;;14.25;6.10;;;;;;;17.05;68.21;93846.00;5101422;28;20042;-74
2021/06/13 05:52:15;;;;;;;12.52;6.80;;;;;;;17.20;67.71;93851.69;5093010;28;20024;-74
2021/06/13 05:54:40;;;;;;;15.10;6.78;;;;;;;17.32;66.98;93854.25;5103047;28;20480;-74
2021/06/13 05:57:06;;;;;;;8.32;5.88;;;;;;;17.47;67.16;93859.91;5104073;28;20016;-74
2021/06/13 05:59:31;;;;;;;16.60;5.68;;;;;;;17.58;66.78;93850.09;5089859;28;20024;-74
2021/06/13 06:01:57;;;;;;;8.23;5.53;;;;;;;17.71;66.92;93862.28;5092642;28;20486;-74
2021/06/13 06:04:22;;;;;;;9.90;5.55;;;;;;;17.87;66.91;93856.00;5089836;28;20020;-75
2021/06/13 06:06:48;;;;;;;11.25;5.80;;;;;;;17.95;66.20;93853.09;5101466;28;20379;-75
2021/06/13 06:09:13;;;;;;;7.97;5.82;;;;;;;18.02;64.63;93852.44;5105821;28;20499;-75
2021/06/13 06:11:42;;;;;;;13.55;5.53;;;;;;;18.07;65.42;93849.41;5088298;28;20055;-75
2021/06/13 06:14:08;;;;;;;9.43;5.18;;;;;;;18.16;65.05;93855.34;5089721;28;20552;-75
2021/06/13 06:16:34;;;;;;;11.02;5.97;;;;;;;18.28;64.51;93853.59;5099347;28;20012;-75
2021/06/13 06:19:00;;;;;;;11.27;6.20;;;;;;;18.38;64.18;93861.88;5109944;28;20049;-75
2021/06/13 06:21:25;;;;;;;7.75;5.43;;;;;;;18.52;63.48;93860.53;5125839;27;20027;-75
2021/06/13 06:23:51;;;;;;;8.60;5.35;;;;;;;18.61;63.85;93856.44;5105698;28;20081;-75
2021/06/13 06:26:16;;;;;;;13.05;6.30;;;;;;;18.79;62.97;93853.25;5101656;28;20518;-75
2021/06/13 06:28:42;;;;;;;13.40;6.30;;;;;;;18.84;62.71;93852.91;5104328;28;20059;-75
2021/06/13 06:31:07;;;;;;;11.95;6.03;;;;;;;18.92;62.27;93854.56;5109921;28;20031;-75
2021/06/13 06:33:33;;;;;;;11.68;6.32;;;;;;;18.95;61.48;93853.84;5109994;28;20015;-75
2021/06/13 06:35:59;;;;;;;10.77;6.65;;;;;;;19.00;61.04;93856.22;5110106;28;20020;-75
2021/06/13 06:38:24;;;;;;;11.55;6.10;;;;;;;19.11;61.53;93850.16;5109658;28;20383;-75
2021/06/13 06:40:50;;;;;;;10.30;7.32;;;;;;;19.16;61.21;93842.53;5106362;28;20471;-75
2021/06/13 06:43:15;;;;;;;15.82;7.32;;;;;;;19.13;62.00;93851.38;5089560;28;20020;-75
2021/06/13 06:45:40;;;;;;;11.30;6.95;;;;;;;19.28;61.40;93840.75;5102389;28;20024;-75
2021/06/13 06:48:06;;;;;;;14.18;8.93;;;;;;;19.19;61.12;93846.41;5088165;28;20024;-75
2021/06/13 06:50:32;;;;;;;15.88;9.05;;;;;;;19.16;61.83;93844.44;5092245;28;20027;-74
2021/06/13 06:52:57;;;;;;;15.18;7.95;;;;;;;19.13;62.48;93828.97;5089530;28;20392;-75
2021/06/13 06:55:22;;;;;;;12.68;8.23;;;;;;;19.20;63.35;93832.53;5087924;28;20108;-79
2021/06/13 06:57:48;;;;;;;13.02;8.30;;;;;;;19.32;63.04;93834.22;5087932;28;20111;-78
2021/06/13 07:00:16;;;;;;;15.18;7.07;;;;;;;19.43;62.46;93826.22;5109212;28;20479;-77
2021/06/13 07:02:42;;;;;;;11.52;7.75;;;;;;;19.53;62.67;93827.50;5108386;28;20061;-78
2021/06/13 07:05:09;;;;;;;14.63;7.63;;;;;;;19.50;62.49;93829.00;5092309;28;20024;-77
2021/06/13 07:07:34;;;;;;;17.75;8.35;;;;;;;19.65;62.36;93819.88;5088995;28;20027;-77
2021/06/13 07:10:00;;;;;;;8.80;4.97;;;;;;;19.76;57.60;93830.84;5104611;28;20028;-78
2021/06/13 07:12:26;;;;;;;8.77;3.85;;;;;;;19.71;55.19;93823.06;5099087;28;20443;-77
2021/06/13 07:14:51;;;;;;;7.70;3.90;;;;;;;19.72;56.15;93823.84;5092012;28;20012;-76
2021/06/13 07:17:17;;;;;;;6.57;4.20;;;;;;;19.70;54.32;93829.59;5096284;28;20019;-77
2021/06/13 07:19:42;;;;;;;6.90;3.80;;;;;;;19.54;54.65;93818.22;5112655;28;20103;-77
2021/06/13 07:22:08;;;;;;;5.97;4.30;;;;;;;19.55;53.99;93817.84;5111893;28;20034;-77
2021/06/13 07:24:33;;;;;;;8.63;4.80;;;;;;;19.60;55.52;93811.31;5111733;28;20020;-77
2021/06/13 07:26:59;;;;;;;11.10;5.03;;;;;;;19.67;55.73;93813.34;5113004;28;20038;-80
2021/06/13 07:29:24;;;;;;;6.82;4.97;;;;;;;19.68;55.42;93806.78;5095487;28;20030;-81
2021/06/13 07:31:50;;;;;;;6.72;5.40;;;;;;;19.73;55.67;93811.88;5100941;28;20020;-80
2021/06/13 07:34:16;;;;;;;7.25;4.82;;;;;;;19.74;56.19;93810.72;5097396;28;20070;-79
2021/06/13 07:36:42;;;;;;;6.32;4.72;;;;;;;19.59;55.73;93815.19;5092550;28;20111;-78
2021/06/13 07:39:07;;;;;;;8.57;4.72;;;;;;;19.58;55.86;93805.50;5092705;28;20060;-78
2021/06/13 07:41:33;;;;;;;8.07;5.35;;;;;;;19.72;56.62;93811.13;5104300;28;20027;-78
2021/06/13 07:43:58;;;;;;;7.03;5.43;;;;;;;19.74;56.47;93810.72;5098142;28;20446;-78
2021/06/13 07:46:24;;;;;;;6.70;5.10;;;;;;;19.81;55.70;93810.81;5093416;28;20479;-77
2021/06/13 07:48:49;;;;;;;8.13;5.15;;;;;;;19.99;56.33;93808.25;5090859;28;20404;-78
2021/06/13 07:51:15;;;;;;;8.10;5.55;;;;;;;20.06;55.78;93812.94;5096895;28;20034;-78
2021/06/13 07:53:43;;;;;;;14.98;5.35;;;;;;;20.22;55.98;93813.47;5112290;28;20493;-78
2021/06/13 07:56:13;;;;;;;12.38;4.95;;;;;;;20.39;54.03;93802.00;5099407;27;20035;-78
2021/06/13 07:58:39;;;;;;;11.05;5.57;;;;;;;20.42;54.45;93806.63;5095447;28;20953;-78
2021/06/13 08:01:05;;;;;;;7.90;4.85;;;;;;;20.47;54.45;93808.22;5112748;28;20406;-78
2021/06/13 08:03:30;;;;;;;6.30;4.63;;;;;;;20.35;52.23;93811.22;5108451;28;20028;-78
2021/06/13 08:05:55;;;;;;;9.00;4.82;;;;;;;20.30;54.01;93803.47;5099653;28;20066;-78
2021/06/13 08:08:21;;;;;;;6.53;4.90;;;;;;;20.21;54.54;93815.41;5090933;28;20452;-78
2021/06/13 08:10:46;;;;;;;8.05;4.78;;;;;;;20.28;53.36;93811.94;5100190;28;20043;-78
2021/06/13 08:13:13;;;;;;;8.02;4.93;;;;;;;20.31;54.43;93816.59;5110999;28;20434;-78
2021/06/13 08:15:39;;;;;;;11.10;4.88;;;;;;;20.28;53.43;93819.31;5100344;28;20441;-78
2021/06/13 08:18:04;;;;;;;10.30;4.55;;;;;;;20.33;53.54;93818.94;5097694;28;20497;-78
2021/06/13 08:20:30;;;;;;;7.68;5.40;;;;;;;20.38;53.87;93815.91;5110991;28;20023;-78
2021/06/13 08:22:55;;;;;;;7.68;5.53;;;;;;;20.48;52.88;93820.59;5112055;28;20027;-78
2021/06/13 08:25:21;;;;;;;6.47;5.10;;;;;;;20.43;52.50;93823.66;5103081;28;20040;-78
2021/06/13 08:27:47;;;;;;;9.05;5.78;;;;;;;20.41;53.18;93824.06;5100185;28;20404;-79
2021/06/13 08:30:14;;;;;;;8.48;5.43;;;;;;;20.39;52.65;93825.56;5089489;28;20023;-78
2021/06/13 08:32:41;;;;;;;7.80;5.55;;;;;;;20.17;54.17;93832.72;5091893;28;20054;-78
2021/06/13 08:35:08;;;;;;;10.30;7.60;;;;;;;19.95;55.54;93832.56;5103144;28;20027;-78
2021/06/13 08:37:34;;;;;;;9.60;7.78;;;;;;;19.57;55.45;93839.13;5094524;28;20034;-77
2021/06/13 08:40:00;;;;;;;15.20;7.85;;;;;;;19.44;56.30;93833.97;5094536;28;20043;-78
2021/06/13 08:42:26;;;;;;;9.43;6.82;;;;;;;19.37;56.93;93838.50;5104404;28;20027;-78
2021/06/13 08:44:52;;;;;;;9.80;7.82;;;;;;;19.14;59.70;93841.34;5097588;28;20030;-78
2021/06/13 08:47:19;;;;;;;11.57;7.90;;;;;;;19.04;60.87;93840.81;5093904;28;20053;-77
2021/06/13 08:49:46;;;;;;;9.75;8.30;;;;;;;18.85;60.39;93846.38;5097775;28;20024;-77
2021/06/13 08:52:12;;;;;;;11.15;8.45;;;;;;;18.73;60.10;93830.38;5109862;28;20015;-77
2021/06/13 08:54:39;;;;;;;21.27;9.65;;;;;;;18.85;61.68;93835.56;5099681;28;20371;-77
2021/06/13 08:57:05;;;;;;;13.13;8.00;;;;;;;18.90;60.61;93834.47;5111088;28;20362;-78
2021/06/13 08:59:31;;;;;;;11.43;7.43;;;;;;;18.78;59.24;93843.53;5104534;28;20111;-77
2021/06/13 09:01:57;;;;;;;10.27;7.82;;;;;;;18.63;59.97;93835.25;5105126;28;20107;-78
2021/06/13 09:04:23;;;;;;;12.90;7.80;;;;;;;18.60;60.01;93841.38;5105349;28;20060;-78
2021/06/13 09:06:50;;;;;;;14.13;7.65;;;;;;;18.64;60.53;93839.50;5106610;28;20118;-77
2021/06/13 09:09:20;;;;;;;9.77;7.60;;;;;;;18.58;60.93;93842.88;5090279;28;20541;-77
2021/06/13 09:12:03;;;;;;;9.02;7.13;;;;;;;18.61;60.65;93855.66;5103483;28;20165;-77
2021/06/13 09:14:29;;;;;;;12.32;6.60;;;;;;;18.47;60.14;93847.34;5109169;28;20023;-77
2021/06/13 09:16:56;;;;;;;8.65;6.45;;;;;;;18.48;60.31;93857.78;5108938;28;20019;-77
2021/06/13 09:19:22;;;;;;;8.45;6.95;;;;;;;18.42;61.12;93860.00;5108995;28;20320;-77
2021/06/13 09:21:48;;;;;;;8.73;7.47;;;;;;;18.29;61.66;93865.97;5106125;28;20024;-77
2021/06/13 09:24:19;;;;;;;9.18;6.43;;;;;;;18.12;63.15;93864.53;5107277;28;20023;-78
2021/06/13 09:26:46;;;;;;;7.40;6.37;;;;;;;17.95;63.18;93873.88;5097675;28;20118;-79
2021/06/13 09:29:12;;;;;;;7.93;5.70;;;;;;;17.77;64.79;93879.72;5088835;28;20031;-79
2021/06/13 09:31:37;;;;;;;7.10;5.85;;;;;;;17.63;65.65;93880.22;5105284;28;20482;-78
2021/06/13 09:34:05;;;;;;;7.43;5.40;;;;;;;17.59;66.33;93887.47;5097230;28;20450;-78
2021/06/13 09:36:35;;;;;;;10.45;5.50;;;;;;;17.43;67.62;93887.53;5089839;28;20111;-78
2021/06/13 09:39:07;;;;;;;8.43;4.78;;;;;;;17.30;68.75;93888.84;5103724;28;20020;-80
2021/06/13 09:41:34;;;;;;;;;;;;;;;17.14;70.58;93896.22;5088958;28;20103;-78
2021/06/13 09:44:06;;;;;;;5.85;4.80;;;;;;;17.04;71.53;93898.31;5088861;28;19923;-81
2021/06/13 09:46:34;;;;;;;7.55;4.30;;;;;;;16.88;71.40;93889.50;5110427;28;20028;-83
2021/06/13 09:49:09;;;;;;;5.05;4.00;;;;;;;16.75;71.92;93896.09;5101423;28;20024;-81
2021/06/13 09:51:42;;;;;;;8.52;4.63;;;;;;;16.74;73.61;93879.16;5101440;28;20437;-81
2021/06/13 09:54:16;;;;;;;5.15;3.45;;;;;;;16.74;72.09;93876.47;5087592;28;20122;-81
2021/06/13 09:56:42;;;;;;;5.90;3.55;;;;;;;16.67;72.64;93879.03;5100835;28;20470;-81
2021/06/13 09:59:08;;;;;;;3.75;3.10;;;;;;;16.71;71.26;93874.50;5097957;28;20063;-81
2021/06/13 10:01:37;;;;;;;4.70;3.45;;;;;;;16.74;71.37;93873.78;5087979;28;20504;-81
2021/06/13 10:04:05;;;;;;;3.90;2.72;;;;;;;16.67;72.07;93868.25;5090835;28;20020;-81
2021/06/13 10:06:34;;;;;;;3.35;2.58;;;;;;;16.67;70.99;93878.22;5095902;28;20406;-80
2021/06/13 10:09:01;;;;;;;6.78;2.83;;;;;;;16.65;71.81;93887.44;5100807;28;20024;-81
2021/06/13 10:11:26;;;;;;;3.88;2.83;;;;;;;16.64;71.71;93885.88;5089421;28;20419;-74
2021/06/13 10:13:56;;;;;;;4.45;2.90;;;;;;;16.54;72.14;93881.03;5103415;28;20103;-72
2021/06/13 10:16:27;;;;;;;3.65;2.50;;;;;;;16.51;71.36;93889.03;5091564;28;20032;-74
2021/06/13 10:18:55;;;;;;;3.42;2.65;;;;;;;16.51;72.09;93879.06;5089342;28;20475;-72
2021/06/13 10:21:24;;;;;;;4.35;3.05;;;;;;;16.54;71.99;93880.25;5096545;28;20036;-73
2021/06/13 10:23:50;;;;;;;5.03;2.58;;;;;;;16.48;72.21;93887.81;5092010;28;20039;-73
2021/06/13 10:26:16;;;;;;;4.07;2.50;;;;;;;16.45;71.24;93873.16;5093439;28;20057;-73
2021/06/13 10:28:41;;;;;;;3.40;2.40;;;;;;;16.41;71.34;93890.34;5087849;28;20061;-73
2021/06/13 10:31:06;;;;;;;3.53;2.42;;;;;;;16.31;72.07;93888.19;5094382;28;20019;-76
2021/06/13 10:33:32;;;;;;;4.65;2.70;;;;;;;16.27;72.45;93895.38;5109787;28;20117;-73
2021/06/13 10:36:01;;;;;;;3.67;2.60;;;;;;;16.15;72.09;93891.66;5105991;28;20032;-73
2021/06/13 10:38:30;;;;;;;3.45;2.60;;;;;;;16.12;73.32;93884.28;5087613;28;20470;-72
2021/06/13 10:40:59;;;;;;;5.00;3.15;;;;;;;16.05;73.96;93892.94;5090651;28;20036;-73
2021/06/13 10:43:28;;;;;;;6.70;3.05;;;;;;;15.99;73.30;93883.56;5095857;28;20027;-73
2021/06/13 10:46:07;;;;;;;12.30;2.40;;;;;;;16.09;73.15;93886.88;5103866;28;20035;-73
2021/06/13 10:48:51;;;;;;;4.07;2.88;;;;;;;16.01;72.90;93897.44;5087118;28;20463;-72
2021/06/13 10:51:28;;;;;;;3.15;2.45;;;;;;;16.03;72.90;93897.09;5090649;28;20561;-72
2021/06/13 10:54:14;;;;;;;3.15;2.45;;;;;;;16.12;72.27;93897.72;5107852;28;20036;-73
2021/06/13 10:56:39;;;;;;;3.70;2.88;;;;;;;16.19;73.55;93889.06;5113955;28;20034;-72
2021/06/13 10:59:13;;;;;;;3.83;2.25;;;;;;;16.19;72.14;93886.38;5093355;28;20032;-72
2021/06/13 11:02:03;;;;;;;4.05;2.88;;;;;;;16.17;71.37;93884.00;5109256;27;20114;-72
2021/06/13 11:04:47;;;;;;;3.00;2.40;;;;;;;16.29;71.61;93901.19;5102926;28;20073;-71
2021/06/13 11:10:07;;;;;;;4.10;2.25;;;;;;;16.38;71.22;93872.97;5102202;28;20035;-73
2021/06/13 11:12:59;;;;;;;3.20;2.33;;;;;;;16.42;70.81;93876.56;5092605;28;20032;-73
2021/06/13 11:15:29;;;;;;;7.38;1.92;;;;;;;16.55;70.39;93871.84;5105673;28;20059;-74
2021/06/13 11:18:07;;;;;;;13.93;2.20;;;;;;;16.56;69.96;93876.06;5113123;28;20080;-74
2021/06/13 11:23:12;;;;;;;2.80;1.98;;;;;;;16.87;68.90;93879.84;5102786;28;20027;-74
2021/06/13 11:25:39;;;;;;;7.80;1.92;;;;;;;17.00;69.50;93894.75;5112759;28;22077;-74
2021/06/13 11:28:33;;;;;;;2.88;1.92;;;;;;;17.03;69.74;93869.81;5096720;28;20487;-74
2021/06/13 11:31:13;;;;;;;2.55;1.80;;;;;;;17.12;67.05;93883.09;5107878;28;20028;-74
2021/06/13 11:33:43;;;;;;;2.55;1.63;;;;;;;17.12;65.61;93856.16;5106113;28;20024;-74
2021/06/13 11:36:22;;;;;;;6.00;1.80;;;;;;;17.10;65.24;93868.41;5099472;28;20480;-74